createdAt,value
2023-02-06T00:01:37.092Z,85.29
2023-02-06T00:04:04.457Z,85.04
2023-02-06T00:06:31.612Z,84.97
2023-02-06T00:08:58.838Z,85.24
2023-02-06T00:11:26.517Z,85.23
2023-02-06T00:13:53.640Z,84.81
2023-02-06T00:16:30.834Z,85.08
2023-02-06T00:18:59.290Z,84.69
2023-02-06T00:21:28.372Z,84.37
2023-02-06T00:23:58.469Z,85.02
2023-02-06T00:26:25.592Z,85.17
2023-02-06T00:28:52.941Z,85.17
2023-02-06T00:31:20.092Z,85.69
2023-02-06T00:33:47.305Z,85.53
2023-02-06T00:36:15.200Z,85.12
2023-02-06T00:38:42.356Z,85.29
2023-02-06T00:41:09.640Z,85.54
2023-02-06T00:43:37.098Z,85.85
2023-02-06T00:46:04.804Z,85.84
2023-02-06T00:48:31.906Z,85.72
2023-02-06T00:50:58.921Z,86.33
2023-02-06T00:53:25.956Z,86.03
2023-02-06T00:55:53.010Z,86.03
2023-02-06T00:58:22.319Z,86.03
2023-02-06T01:00:49.431Z,86.62
2023-02-06T01:03:17.090Z,87.05
2023-02-06T01:05:44.282Z,86.62
2023-02-06T01:08:11.496Z,86.26
2023-02-06T01:10:42.325Z,86.64
2023-02-06T01:13:10.395Z,86.85
2023-02-06T01:15:37.846Z,87.06
2023-02-06T01:18:05.151Z,86.91
2023-02-06T01:20:32.636Z,87.15
2023-02-06T01:22:59.726Z,86.43
2023-02-06T01:25:27.085Z,86.71
2023-02-06T01:27:54.195Z,87.06
2023-02-06T01:30:21.475Z,86.83
2023-02-06T01:32:49.764Z,86.69
2023-02-06T01:35:16.882Z,86.87
2023-02-06T01:37:43.957Z,86.69
2023-02-06T01:40:16.434Z,86.18
2023-02-06T01:42:43.929Z,86.79
2023-02-06T01:45:42.529Z,86.81
2023-02-06T01:48:16.578Z,86.69
2023-02-06T01:50:50.187Z,86.99
2023-02-06T01:53:18.419Z,86.44
2023-02-06T01:55:48.303Z,86.83
2023-02-06T01:58:25.523Z,86.73
2023-02-06T02:00:53.249Z,86.56
2023-02-06T02:03:20.665Z,85.96
2023-02-06T02:05:51.117Z,85.91
2023-02-06T02:08:25.094Z,85.57
2023-02-06T02:10:52.295Z,85.73
2023-02-06T02:13:19.333Z,85.15
2023-02-06T02:15:53.157Z,85.34
2023-02-06T02:18:36.816Z,84.69
2023-02-06T02:21:31.332Z,83.84
2023-02-06T02:24:36.582Z,83.54
2023-02-06T02:27:33.609Z,83.52
2023-02-06T02:30:40.756Z,83.51
2023-02-06T02:33:29.268Z,82.88
2023-02-06T02:36:08.243Z,82.75
2023-02-06T02:38:37.265Z,82.43
2023-02-06T02:41:18.880Z,81.96
2023-02-06T02:44:07.379Z,82.12
2023-02-06T02:46:52.380Z,82.02
2023-02-06T02:49:26.042Z,82.17
2023-02-06T02:51:54.039Z,82.00
2023-02-06T02:54:21.194Z,82.23
2023-02-06T02:56:48.349Z,81.47
2023-02-06T02:59:23.621Z,81.03
2023-02-06T03:01:53.610Z,81.20
2023-02-06T03:04:31.424Z,81.49
2023-02-06T03:07:04.607Z,80.98
2023-02-06T03:09:45.880Z,80.84
2023-02-06T03:12:41.111Z,81.12
2023-02-06T03:15:45.479Z,80.87
2023-02-06T03:18:23.557Z,80.67
2023-02-06T03:20:51.793Z,80.46
2023-02-06T03:23:26.558Z,80.58
2023-02-06T03:25:59.352Z,80.76
2023-02-06T03:28:35.598Z,80.78
2023-02-06T03:31:09.280Z,80.64
2023-02-06T03:33:46.450Z,80.97
2023-02-06T03:36:16.633Z,81.13
2023-02-06T03:38:50.259Z,81.35
2023-02-06T03:41:20.929Z,81.36
2023-02-06T03:43:50.240Z,81.52
2023-02-06T03:46:18.317Z,81.71
2023-02-06T03:48:53.561Z,82.17
2023-02-06T03:51:38.576Z,82.31
2023-02-06T03:54:07.179Z,82.52
2023-02-06T03:56:49.943Z,82.88
2023-02-06T03:59:17.072Z,82.87
2023-02-06T04:01:49.828Z,82.64
2023-02-06T04:04:19.609Z,82.56
2023-02-06T04:06:46.860Z,82.13
2023-02-06T04:09:13.943Z,81.76
2023-02-06T04:11:41.068Z,81.20
2023-02-06T04:14:08.152Z,80.76
2023-02-06T04:16:35.308Z,80.60
2023-02-06T04:19:02.335Z,80.14
2023-02-06T04:21:29.495Z,79.91
2023-02-06T04:23:56.509Z,79.15
2023-02-06T04:26:23.493Z,78.63
2023-02-06T04:28:50.537Z,78.78
2023-02-06T04:31:17.649Z,78.03
2023-02-06T04:33:44.764Z,78.23
2023-02-06T04:36:12.138Z,77.79
2023-02-06T04:38:39.176Z,77.74
2023-02-06T04:41:07.355Z,77.86
2023-02-06T04:43:34.451Z,77.60
2023-02-06T04:46:01.569Z,77.91
2023-02-06T04:48:28.663Z,78.25
2023-02-06T04:50:55.693Z,78.22
2023-02-06T04:53:22.758Z,78.38
2023-02-06T04:55:50.087Z,78.77
2023-02-06T04:58:17.195Z,79.48
2023-02-06T05:00:44.252Z,79.54
2023-02-06T05:03:11.308Z,80.33
2023-02-06T05:05:38.352Z,80.29
2023-02-06T05:08:05.546Z,80.51
2023-02-06T05:10:32.652Z,80.90
2023-02-06T05:12:59.711Z,82.20
2023-02-06T05:15:26.886Z,81.83
2023-02-06T05:17:54.044Z,82.31
2023-02-06T05:20:21.150Z,83.17
2023-02-06T05:22:48.173Z,82.92
2023-02-06T05:25:15.434Z,83.31
2023-02-06T05:27:42.456Z,83.64
2023-02-06T05:30:10.733Z,84.53
2023-02-06T05:32:37.880Z,85.18
2023-02-06T05:35:05.652Z,84.95
2023-02-06T05:37:32.871Z,86.26
2023-02-06T05:40:00.258Z,86.36
2023-02-06T05:42:27.337Z,85.51
2023-02-06T05:44:54.416Z,85.59
2023-02-06T05:47:21.492Z,85.45
2023-02-06T05:49:48.792Z,86.04
2023-02-06T05:52:16.090Z,85.67
2023-02-06T05:54:44.474Z,85.58
2023-02-06T05:57:12.177Z,85.34
2023-02-06T05:59:39.242Z,84.81
2023-02-06T06:02:06.398Z,84.51
2023-02-06T06:04:33.483Z,84.01
2023-02-06T06:07:00.654Z,83.52
2023-02-06T06:09:27.798Z,83.23
2023-02-06T06:11:54.937Z,83.08
2023-02-06T06:14:21.975Z,83.14
2023-02-06T06:16:49.041Z,82.70
2023-02-06T06:19:16.133Z,82.37
2023-02-06T06:21:43.208Z,82.02
2023-02-06T06:24:10.218Z,81.89
2023-02-06T06:26:37.354Z,81.78
2023-02-06T06:29:04.794Z,81.59
2023-02-06T06:31:32.020Z,81.14
2023-02-06T06:33:59.190Z,81.07
2023-02-06T06:36:26.482Z,80.93
2023-02-06T06:38:53.557Z,81.09
2023-02-06T06:41:20.606Z,80.97
2023-02-06T06:43:48.333Z,81.44
2023-02-06T06:46:16.602Z,81.64
2023-02-06T06:48:43.658Z,81.98
2023-02-06T06:51:10.710Z,82.44
2023-02-06T06:53:39.319Z,83.14
2023-02-06T06:56:09.742Z,83.33
2023-02-06T06:58:36.792Z,82.56
2023-02-06T07:01:04.523Z,82.66
2023-02-06T07:03:31.705Z,82.77
2023-02-06T07:05:58.801Z,82.95
2023-02-06T07:08:29.324Z,82.71
2023-02-06T07:10:57.341Z,81.96
2023-02-06T07:13:24.455Z,81.98
2023-02-06T07:15:51.577Z,82.63
2023-02-06T07:18:18.706Z,82.36
2023-02-06T07:20:45.754Z,82.14
2023-02-06T07:23:12.864Z,81.67
2023-02-06T07:25:39.969Z,82.18
2023-02-06T07:28:07.532Z,82.45
2023-02-06T07:30:34.711Z,83.47
2023-02-06T07:33:04.747Z,83.47
2023-02-06T07:35:32.018Z,84.23
2023-02-06T07:37:59.287Z,84.29
2023-02-06T07:40:29.314Z,84.52
2023-02-06T07:43:00.682Z,83.96
2023-02-06T07:45:33.658Z,83.67
2023-02-06T07:48:04.440Z,83.41
2023-02-06T07:50:32.241Z,83.36
2023-02-06T07:52:59.402Z,82.89
2023-02-06T07:55:26.894Z,83.75
2023-02-06T07:57:54.773Z,83.30
2023-02-06T08:00:21.945Z,82.88
2023-02-06T08:02:49.014Z,81.79
2023-02-06T08:05:16.176Z,80.26
2023-02-06T08:07:43.200Z,79.49
2023-02-06T08:10:10.350Z,78.53
2023-02-06T08:12:37.519Z,77.62
2023-02-06T08:15:04.972Z,77.56
2023-02-06T08:17:31.969Z,77.26
2023-02-06T08:19:59.688Z,76.78
2023-02-06T08:22:29.432Z,75.84
2023-02-06T08:24:56.546Z,75.25
2023-02-06T08:27:23.631Z,75.47
2023-02-06T08:29:51.240Z,75.01
2023-02-06T08:32:18.481Z,75.77
2023-02-06T08:34:45.637Z,74.95
2023-02-06T08:37:12.803Z,74.95
2023-02-06T08:39:40.017Z,75.22
2023-02-06T08:42:07.180Z,74.25
2023-02-06T08:44:34.420Z,74.28
2023-02-06T08:47:09.551Z,74.21
2023-02-06T08:49:37.904Z,73.14
2023-02-06T08:52:05.375Z,72.79
2023-02-06T08:54:35.212Z,72.44
2023-02-06T08:57:03.334Z,72.27
2023-02-06T08:59:30.584Z,72.34
2023-02-06T09:01:57.768Z,73.01
2023-02-06T09:04:25.117Z,72.28
2023-02-06T09:06:52.372Z,71.82
2023-02-06T09:09:19.410Z,71.56
2023-02-06T09:11:47.040Z,71.29
2023-02-06T09:14:17.384Z,71.94
2023-02-06T09:16:44.724Z,72.21
2023-02-06T09:19:12.825Z,72.84
2023-02-06T09:21:39.958Z,73.59
2023-02-06T09:24:08.835Z,72.82
2023-02-06T09:26:58.061Z,73.13
2023-02-06T09:29:29.153Z,73.24
2023-02-06T09:31:56.913Z,72.87
2023-02-06T09:34:25.296Z,72.39
2023-02-06T09:36:57.142Z,71.48
2023-02-06T09:39:25.212Z,72.20
2023-02-06T09:42:29.903Z,71.52
2023-02-06T09:45:19.686Z,71.45
2023-02-06T09:47:53.633Z,70.67
2023-02-06T09:50:43.394Z,70.51
2023-02-06T09:53:31.851Z,69.99
2023-02-06T09:56:07.836Z,69.46
2023-02-06T09:58:53.288Z,70.16
2023-02-06T10:02:19.236Z,70.27
2023-02-06T10:04:59.272Z,69.88
2023-02-06T10:07:38.798Z,69.76
2023-02-06T10:10:35.872Z,69.97
2023-02-06T10:13:23.999Z,69.92
2023-02-06T10:15:57.317Z,69.67
2023-02-06T10:18:38.828Z,70.00
2023-02-06T10:21:22.246Z,70.75
2023-02-06T10:24:23.719Z,70.63
2023-02-06T10:26:53.052Z,70.20
2023-02-06T10:29:47.849Z,70.59
2023-02-06T10:32:38.345Z,71.31
2023-02-06T10:35:29.305Z,71.56
2023-02-06T10:38:21.470Z,72.17
2023-02-06T10:41:30.018Z,72.60
2023-02-06T10:44:20.721Z,73.01
2023-02-06T10:46:50.823Z,73.02
2023-02-06T10:49:32.559Z,72.88
2023-02-06T10:52:27.073Z,72.52
2023-02-06T10:55:12.387Z,72.24
2023-02-06T10:57:42.394Z,71.64
2023-02-06T11:00:24.452Z,71.20
2023-02-06T11:03:07.685Z,72.48
2023-02-06T11:05:36.370Z,73.17
2023-02-06T11:08:21.817Z,73.17
2023-02-06T11:10:49.254Z,73.30
2023-02-06T11:13:35.186Z,73.16
2023-02-06T11:16:16.174Z,74.51
2023-02-06T11:18:45.541Z,74.03
2023-02-06T11:21:34.266Z,73.67
2023-02-06T11:24:13.550Z,73.45
2023-02-06T11:26:54.727Z,73.30
2023-02-06T11:29:35.311Z,71.05
2023-02-06T11:32:08.299Z,71.09
2023-02-06T11:34:57.069Z,71.77
2023-02-06T11:37:38.755Z,72.90
2023-02-06T11:40:17.701Z,73.88
2023-02-06T11:42:54.078Z,73.71
2023-02-06T11:45:31.413Z,74.17
2023-02-06T11:47:59.489Z,74.42
2023-02-06T11:50:28.018Z,74.43
2023-02-06T11:53:11.357Z,74.70
2023-02-06T11:55:39.617Z,75.30
2023-02-06T11:58:12.867Z,75.53
2023-02-06T12:00:51.632Z,76.62
2023-02-06T12:03:35.710Z,78.51
2023-02-06T12:06:38.065Z,78.66
2023-02-06T12:09:11.683Z,77.50
2023-02-06T12:12:01.480Z,77.01
2023-02-06T12:14:53.245Z,76.26
2023-02-06T12:17:27.811Z,75.49
2023-02-06T12:20:29.193Z,76.06
2023-02-06T12:23:41.182Z,75.74
2023-02-06T12:26:17.838Z,75.85
2023-02-06T12:28:58.397Z,75.85
2023-02-06T12:32:18.358Z,75.39
2023-02-06T12:34:55.638Z,75.90
2023-02-06T12:37:46.257Z,76.46
2023-02-06T12:40:40.635Z,74.62
2023-02-06T12:43:14.948Z,73.90
2023-02-06T12:45:46.127Z,73.75
2023-02-06T12:48:20.761Z,73.27
2023-02-06T12:51:21.791Z,73.54
2023-02-06T12:53:56.795Z,73.17
2023-02-06T12:56:49.686Z,71.96
2023-02-06T12:59:38.528Z,71.22
2023-02-06T13:03:01.500Z,71.25
2023-02-06T13:05:42.589Z,71.80
2023-02-06T13:08:16.008Z,71.94
2023-02-06T13:10:43.828Z,72.42
2023-02-06T13:13:28.697Z,72.37
2023-02-06T13:15:59.816Z,73.06
2023-02-06T13:18:50.028Z,73.39
2023-02-06T13:21:20.398Z,73.77
2023-02-06T13:24:02.437Z,73.38
2023-02-06T13:26:56.589Z,74.04
2023-02-06T13:29:28.987Z,73.82
2023-02-06T13:32:11.450Z,73.77
2023-02-06T13:34:43.626Z,74.10
2023-02-06T13:37:39.132Z,74.16
2023-02-06T13:40:25.072Z,74.08
2023-02-06T13:43:07.046Z,74.73
2023-02-06T13:45:51.944Z,75.69
2023-02-06T13:49:40.298Z,75.43
2023-02-06T13:52:10.214Z,73.90
2023-02-06T13:55:02.266Z,73.03
2023-02-06T13:58:02.565Z,72.69
2023-02-06T14:00:32.194Z,71.99
2023-02-06T14:03:06.955Z,71.36
2023-02-06T14:05:53.243Z,71.68
2023-02-06T14:08:53.978Z,70.98
2023-02-06T14:12:24.133Z,72.76
2023-02-06T14:15:42.196Z,74.00
2023-02-06T14:18:48.580Z,74.32
2023-02-06T14:22:23.318Z,73.89
2023-02-06T14:25:10.822Z,74.62
2023-02-06T14:28:08.843Z,74.26
2023-02-06T14:30:50.046Z,74.60
2023-02-06T14:33:40.625Z,75.63
2023-02-06T14:36:31.852Z,75.88
2023-02-06T14:39:34.873Z,76.10
2023-02-06T14:42:36.967Z,76.70
2023-02-06T14:45:41.698Z,76.14
2023-02-06T14:48:28.380Z,75.54
2023-02-06T14:50:57.671Z,75.16
2023-02-06T14:53:37.401Z,74.91
2023-02-06T14:56:35.888Z,74.39
2023-02-06T14:59:17.399Z,73.51
2023-02-06T15:01:49.516Z,73.77
2023-02-06T15:04:25.499Z,73.87
2023-02-06T15:07:01.404Z,73.82
2023-02-06T15:09:38.327Z,73.78
2023-02-06T15:12:23.282Z,74.38
2023-02-06T15:14:57.447Z,73.77
2023-02-06T15:17:28.175Z,73.75
2023-02-06T15:19:55.675Z,74.27
2023-02-06T15:22:29.744Z,74.56
2023-02-06T15:25:27.896Z,75.23
2023-02-06T15:28:09.571Z,75.60
2023-02-06T15:30:37.284Z,75.95
2023-02-06T15:33:11.029Z,76.81
2023-02-06T15:35:47.934Z,77.12
2023-02-06T15:38:16.069Z,77.59
2023-02-06T15:40:51.862Z,77.97
2023-02-06T15:43:25.310Z,77.30
2023-02-06T15:46:00.326Z,77.25
2023-02-06T15:48:48.589Z,76.56
2023-02-06T15:51:48.277Z,77.06
2023-02-06T15:54:15.273Z,77.24
2023-02-06T15:56:47.428Z,76.54
2023-02-06T15:59:26.043Z,76.52
2023-02-06T16:01:56.571Z,76.45
2023-02-06T16:04:34.570Z,76.68
2023-02-06T16:07:21.815Z,76.36
2023-02-06T16:09:52.987Z,76.05
2023-02-06T16:12:21.401Z,76.25
2023-02-06T16:14:59.143Z,76.79
2023-02-06T16:17:34.229Z,76.67
2023-02-06T16:20:26.351Z,76.76
2023-02-06T16:22:56.656Z,76.25
2023-02-06T16:25:31.266Z,76.44
2023-02-06T16:27:59.669Z,76.10
2023-02-06T16:30:34.417Z,76.41
2023-02-06T16:33:32.333Z,75.80
2023-02-06T16:35:59.717Z,75.36
2023-02-06T16:38:26.812Z,76.11
2023-02-06T16:40:54.024Z,76.15
2023-02-06T16:43:21.475Z,76.06
2023-02-06T16:45:49.336Z,75.43
2023-02-06T16:48:17.242Z,75.37
2023-02-06T16:50:46.812Z,75.29
2023-02-06T16:53:22.021Z,75.44
2023-02-06T16:55:49.862Z,75.73
2023-02-06T16:58:23.851Z,75.73
2023-02-06T17:00:51.155Z,75.35
2023-02-06T17:03:18.278Z,75.43
2023-02-06T17:05:47.914Z,75.20
2023-02-06T17:08:22.830Z,75.14
2023-02-06T17:10:50.567Z,75.31
2023-02-06T17:13:21.614Z,75.36
2023-02-06T17:15:51.693Z,75.61
2023-02-06T17:18:20.835Z,76.06
2023-02-06T17:20:52.243Z,75.69
2023-02-06T17:23:20.074Z,76.01
2023-02-06T17:25:47.406Z,75.49
2023-02-06T17:28:18.796Z,76.08
2023-02-06T17:30:48.222Z,75.98
2023-02-06T17:33:15.336Z,75.37
2023-02-06T17:35:42.631Z,75.22
2023-02-06T17:38:09.994Z,75.10
2023-02-06T17:40:39.481Z,75.33
2023-02-06T17:43:06.861Z,75.49
2023-02-06T17:45:37.720Z,75.65
2023-02-06T17:48:05.738Z,75.11
2023-02-06T17:50:33.826Z,75.04
2023-02-06T17:53:02.296Z,74.85
2023-02-06T17:55:29.379Z,74.80
2023-02-06T17:57:56.415Z,74.55
2023-02-06T18:00:24.603Z,74.23
2023-02-06T18:02:54.382Z,74.43
2023-02-06T18:05:22.827Z,74.70
2023-02-06T18:07:51.305Z,75.05
2023-02-06T18:10:20.748Z,74.85
2023-02-06T18:12:48.405Z,74.46
2023-02-06T18:15:16.595Z,74.67
2023-02-06T18:17:43.641Z,75.08
2023-02-06T18:20:12.257Z,74.99
2023-02-06T18:22:41.966Z,75.56
2023-02-06T18:25:12.601Z,75.21
2023-02-06T18:27:42.217Z,75.39
2023-02-06T18:30:10.326Z,75.28
2023-02-06T18:32:38.305Z,76.26
2023-02-06T18:35:07.837Z,75.99
2023-02-06T18:37:35.174Z,75.45
2023-02-06T18:40:02.567Z,75.07
2023-02-06T18:42:47.926Z,74.61
2023-02-06T18:45:14.943Z,74.69
2023-02-06T18:47:41.951Z,74.99
2023-02-06T18:50:11.381Z,74.83
2023-02-06T18:52:39.005Z,74.54
2023-02-06T18:55:08.082Z,74.51
2023-02-06T18:57:36.099Z,74.07
2023-02-06T19:00:06.865Z,74.07
2023-02-06T19:02:43.584Z,73.71
2023-02-06T19:05:12.540Z,73.00
2023-02-06T19:07:41.978Z,72.62
2023-02-06T19:10:13.134Z,72.36
2023-02-06T19:12:42.217Z,71.93
2023-02-06T19:15:12.854Z,71.84
2023-02-06T19:17:42.107Z,71.74
2023-02-06T19:20:12.083Z,71.29
2023-02-06T19:22:40.533Z,71.02
2023-02-06T19:25:14.023Z,71.32
2023-02-06T19:27:42.832Z,71.09
2023-02-06T19:30:13.245Z,71.15
2023-02-06T19:32:42.219Z,71.39
2023-02-06T19:35:12.550Z,71.61
2023-02-06T19:37:41.032Z,71.23
2023-02-06T19:40:10.204Z,71.52
2023-02-06T19:42:39.646Z,71.74
2023-02-06T19:45:08.386Z,71.50
2023-02-06T19:47:36.872Z,71.17
2023-02-06T19:50:06.117Z,71.14
2023-02-06T19:52:35.502Z,71.19
2023-02-06T19:55:04.415Z,71.06
2023-02-06T19:57:33.008Z,71.04
2023-02-06T20:00:01.751Z,70.76
2023-02-06T20:02:46.916Z,70.89
2023-02-06T20:05:15.597Z,70.25
2023-02-06T20:07:44.024Z,70.78
2023-02-06T20:10:12.519Z,70.41
2023-02-06T20:12:40.941Z,70.62
2023-02-06T20:15:10.074Z,70.19
2023-02-06T20:17:38.549Z,69.99
2023-02-06T20:20:08.068Z,70.10
2023-02-06T20:22:36.788Z,70.03
2023-02-06T20:25:05.912Z,69.77
2023-02-06T20:27:34.522Z,70.57
2023-02-06T20:30:03.207Z,71.31
2023-02-06T20:32:31.927Z,71.91
2023-02-06T20:35:00.916Z,72.11
2023-02-06T20:37:29.799Z,71.70
2023-02-06T20:39:59.762Z,71.36
2023-02-06T20:42:28.965Z,71.22
2023-02-06T20:44:58.282Z,71.25
2023-02-06T20:47:27.314Z,71.32
2023-02-06T20:49:55.824Z,70.84
2023-02-06T20:52:24.297Z,71.10
2023-02-06T20:54:52.828Z,71.20
2023-02-06T20:57:22.573Z,71.41
2023-02-06T20:59:51.031Z,71.97
2023-02-06T21:02:19.641Z,72.02
2023-02-06T21:04:49.175Z,71.69
2023-02-06T21:07:21.036Z,71.68
2023-02-06T21:09:49.574Z,71.59
2023-02-06T21:12:18.034Z,71.37
2023-02-06T21:14:47.136Z,71.06
2023-02-06T21:17:15.576Z,71.17
2023-02-06T21:19:44.063Z,71.49
2023-02-06T21:22:12.518Z,71.44
2023-02-06T21:24:40.927Z,71.44
2023-02-06T21:27:10.792Z,71.82
2023-02-06T21:29:39.247Z,72.17
2023-02-06T21:32:14.092Z,72.42
2023-02-06T21:34:43.691Z,72.24
2023-02-06T21:37:13.032Z,72.56
2023-02-06T21:39:42.192Z,72.30
2023-02-06T21:42:11.572Z,72.82
2023-02-06T21:44:40.049Z,73.23
2023-02-06T21:47:10.181Z,73.07
2023-02-06T21:49:38.760Z,72.91
2023-02-06T21:52:07.774Z,73.07
2023-02-06T21:54:36.284Z,73.32
2023-02-06T21:57:04.976Z,73.34
2023-02-06T21:59:34.299Z,73.23
2023-02-06T22:02:02.799Z,72.91
2023-02-06T22:04:31.384Z,72.94
2023-02-06T22:06:59.868Z,72.90
2023-02-06T22:09:28.635Z,73.19
2023-02-06T22:11:58.987Z,73.00
2023-02-06T22:14:27.502Z,72.90
2023-02-06T22:16:55.956Z,72.81
2023-02-06T22:19:24.507Z,72.95
2023-02-06T22:21:53.045Z,73.05
2023-02-06T22:24:21.560Z,73.24
2023-02-06T22:26:50.031Z,73.53
2023-02-06T22:29:18.896Z,73.44
2023-02-06T22:31:48.651Z,73.07
2023-02-06T22:34:20.504Z,73.49
2023-02-06T22:36:51.409Z,73.84
2023-02-06T22:39:20.175Z,73.48
2023-02-06T22:41:49.569Z,73.46
2023-02-06T22:44:20.608Z,73.66
2023-02-06T22:46:52.429Z,73.49
2023-02-06T22:49:22.134Z,73.80
2023-02-06T22:51:50.928Z,74.14
2023-02-06T22:54:20.122Z,74.13
2023-02-06T22:56:48.528Z,73.82
2023-02-06T22:59:22.321Z,74.15
2023-02-06T23:01:54.893Z,74.58
2023-02-06T23:04:30.540Z,74.58
2023-02-06T23:06:59.105Z,74.07
2023-02-06T23:09:33.958Z,74.14
2023-02-06T23:12:03.018Z,74.39
2023-02-06T23:14:33.778Z,74.52
2023-02-06T23:17:03.420Z,74.33
2023-02-06T23:19:31.934Z,74.14
2023-02-06T23:22:00.315Z,74.21
2023-02-06T23:24:28.768Z,73.85
2023-02-06T23:26:57.326Z,74.30
2023-02-06T23:29:26.075Z,74.10
2023-02-06T23:31:55.784Z,73.98
2023-02-06T23:34:24.713Z,74.25
2023-02-06T23:36:53.435Z,74.07
2023-02-06T23:39:22.302Z,74.39
2023-02-06T23:41:50.818Z,74.18
2023-02-06T23:44:19.685Z,73.90
2023-02-06T23:46:48.114Z,74.05
2023-02-06T23:49:16.662Z,73.69
2023-02-06T23:51:45.166Z,73.73
2023-02-06T23:54:13.668Z,73.75
2023-02-06T23:56:42.566Z,73.59
2023-02-06T23:59:12.082Z,73.44
